sensor_id;sensor_type;location;lat;lon;timestamp;P1;durP1;ratioP1;P2;durP2;ratioP2
9142;SDS011;54072;47.410;8.446;2022-08-11T00:00:41;3.10;;;2.10;;
9142;SDS011;54072;47.410;8.446;2022-08-11T00:03:10;2.40;;;2.20;;
9142;SDS011;54072;47.410;8.446;2022-08-11T00:05:42;2.53;;;1.93;;
9142;SDS011;54072;47.410;8.446;2022-08-11T00:08:10;2.43;;;1.90;;
9142;SDS011;54072;47.410;8.446;2022-08-11T00:10:49;2.60;;;1.90;;
9142;SDS011;54072;47.410;8.446;2022-08-11T00:13:17;1.90;;;1.80;;
9142;SDS011;54072;47.410;8.446;2022-08-11T00:15:46;2.37;;;1.70;;
9142;SDS011;54072;47.410;8.446;2022-08-11T00:18:14;2.90;;;2.10;;
9142;SDS011;54072;47.410;8.446;2022-08-11T00:20:43;3.20;;;2.40;;
9142;SDS011;54072;47.410;8.446;2022-08-11T00:23:11;2.40;;;1.87;;
9142;SDS011;54072;47.410;8.446;2022-08-11T00:25:41;2.20;;;1.70;;
9142;SDS011;54072;47.410;8.446;2022-08-11T00:28:22;2.30;;;2.10;;
9142;SDS011;54072;47.410;8.446;2022-08-11T00:30:51;3.03;;;2.00;;
9142;SDS011;54072;47.410;8.446;2022-08-11T00:33:19;2.13;;;1.90;;
9142;SDS011;54072;47.410;8.446;2022-08-11T00:35:48;2.13;;;2.03;;
9142;SDS011;54072;47.410;8.446;2022-08-11T00:38:17;2.00;;;1.90;;
9142;SDS011;54072;47.410;8.446;2022-08-11T00:40:50;2.80;;;2.17;;
9142;SDS011;54072;47.410;8.446;2022-08-11T00:43:21;2.00;;;1.90;;
9142;SDS011;54072;47.410;8.446;2022-08-11T00:45:54;2.40;;;1.90;;
9142;SDS011;54072;47.410;8.446;2022-08-11T00:48:28;2.83;;;2.00;;
9142;SDS011;54072;47.410;8.446;2022-08-11T00:51:02;2.20;;;2.10;;
9142;SDS011;54072;47.410;8.446;2022-08-11T00:53:35;2.10;;;2.00;;
9142;SDS011;54072;47.410;8.446;2022-08-11T00:56:22;2.20;;;2.10;;
9142;SDS011;54072;47.410;8.446;2022-08-11T01:02:05;2.10;;;1.90;;
9142;SDS011;54072;47.410;8.446;2022-08-11T01:04:45;2.37;;;1.90;;
9142;SDS011;54072;47.410;8.446;2022-08-11T01:07:29;2.97;;;2.00;;
9142;SDS011;54072;47.410;8.446;2022-08-11T01:10:05;2.17;;;1.90;;
9142;SDS011;54072;47.410;8.446;2022-08-11T01:12:39;2.37;;;2.10;;
9142;SDS011;54072;47.410;8.446;2022-08-11T01:15:23;3.10;;;2.00;;
9142;SDS011;54072;47.410;8.446;2022-08-11T01:26:36;5.33;;;2.47;;
9142;SDS011;54072;47.410;8.446;2022-08-11T01:29:20;1.97;;;1.87;;
9142;SDS011;54072;47.410;8.446;2022-08-11T01:31:58;2.60;;;2.13;;
9142;SDS011;54072;47.410;8.446;2022-08-11T01:34:51;1.90;;;1.80;;
9142;SDS011;54072;47.410;8.446;2022-08-11T01:37:56;3.20;;;2.30;;
9142;SDS011;54072;47.410;8.446;2022-08-11T01:40:38;5.17;;;1.90;;
9142;SDS011;54072;47.410;8.446;2022-08-11T01:46:19;3.83;;;2.07;;
9142;SDS011;54072;47.410;8.446;2022-08-11T01:48:49;2.37;;;2.17;;
9142;SDS011;54072;47.410;8.446;2022-08-11T01:51:26;2.10;;;2.00;;
9142;SDS011;54072;47.410;8.446;2022-08-11T01:54:00;3.03;;;2.27;;
9142;SDS011;54072;47.410;8.446;2022-08-11T01:56:34;2.33;;;2.00;;
9142;SDS011;54072;47.410;8.446;2022-08-11T01:59:08;2.30;;;2.10;;
9142;SDS011;54072;47.410;8.446;2022-08-11T02:01:37;2.47;;;2.27;;
9142;SDS011;54072;47.410;8.446;2022-08-11T02:04:09;2.10;;;2.00;;
9142;SDS011;54072;47.410;8.446;2022-08-11T02:06:43;2.50;;;2.30;;
9142;SDS011;54072;47.410;8.446;2022-08-11T02:12:21;4.20;;;2.43;;
9142;SDS011;54072;47.410;8.446;2022-08-11T02:14:53;2.20;;;2.10;;
9142;SDS011;54072;47.410;8.446;2022-08-11T02:17:32;2.47;;;2.33;;
9142;SDS011;54072;47.410;8.446;2022-08-11T02:20:06;3.80;;;2.27;;
9142;SDS011;54072;47.410;8.446;2022-08-11T02:22:56;2.50;;;2.20;;
9142;SDS011;54072;47.410;8.446;2022-08-11T02:25:43;2.40;;;2.13;;
9142;SDS011;54072;47.410;8.446;2022-08-11T02:28:17;2.20;;;2.10;;
9142;SDS011;54072;47.410;8.446;2022-08-11T02:30:48;2.30;;;2.10;;
9142;SDS011;54072;47.410;8.446;2022-08-11T02:33:39;2.70;;;2.20;;
9142;SDS011;54072;47.410;8.446;2022-08-11T02:36:07;2.60;;;2.20;;
9142;SDS011;54072;47.410;8.446;2022-08-11T02:38:39;3.50;;;2.30;;
9142;SDS011;54072;47.410;8.446;2022-08-11T02:41:11;4.17;;;2.30;;
9142;SDS011;54072;47.410;8.446;2022-08-11T02:44:05;2.07;;;1.97;;
9142;SDS011;54072;47.410;8.446;2022-08-11T02:46:39;3.23;;;2.17;;
9142;SDS011;54072;47.410;8.446;2022-08-11T02:49:12;3.97;;;2.20;;
9142;SDS011;54072;47.410;8.446;2022-08-11T02:52:02;4.53;;;2.40;;
9142;SDS011;54072;47.410;8.446;2022-08-11T02:54:34;2.73;;;2.40;;
9142;SDS011;54072;47.410;8.446;2022-08-11T02:57:05;2.20;;;2.10;;
9142;SDS011;54072;47.410;8.446;2022-08-11T02:59:40;3.53;;;2.03;;
9142;SDS011;54072;47.410;8.446;2022-08-11T03:02:28;2.50;;;2.10;;
9142;SDS011;54072;47.410;8.446;2022-08-11T03:05:00;2.40;;;2.13;;
9142;SDS011;54072;47.410;8.446;2022-08-11T03:07:30;2.63;;;2.27;;
9142;SDS011;54072;47.410;8.446;2022-08-11T03:10:04;2.30;;;2.20;;
9142;SDS011;54072;47.410;8.446;2022-08-11T03:12:39;3.37;;;2.50;;
9142;SDS011;54072;47.410;8.446;2022-08-11T03:15:26;3.10;;;2.37;;
9142;SDS011;54072;47.410;8.446;2022-08-11T03:18:27;3.27;;;2.60;;
9142;SDS011;54072;47.410;8.446;2022-08-11T03:20:58;2.43;;;2.23;;
9142;SDS011;54072;47.410;8.446;2022-08-11T03:23:29;2.60;;;2.40;;
9142;SDS011;54072;47.410;8.446;2022-08-11T03:26:02;2.50;;;2.30;;
9142;SDS011;54072;47.410;8.446;2022-08-11T03:28:33;3.23;;;2.30;;
9142;SDS011;54072;47.410;8.446;2022-08-11T03:31:06;2.70;;;2.30;;
9142;SDS011;54072;47.410;8.446;2022-08-11T03:33:37;2.90;;;2.40;;
9142;SDS011;54072;47.410;8.446;2022-08-11T03:39:12;2.73;;;2.47;;
9142;SDS011;54072;47.410;8.446;2022-08-11T03:41:51;2.60;;;2.40;;
9142;SDS011;54072;47.410;8.446;2022-08-11T03:44:22;4.27;;;2.53;;
9142;SDS011;54072;47.410;8.446;2022-08-11T03:49:46;2.43;;;2.23;;
9142;SDS011;54072;47.410;8.446;2022-08-11T03:52:22;2.70;;;2.50;;
9142;SDS011;54072;47.410;8.446;2022-08-11T03:54:53;3.43;;;2.37;;
9142;SDS011;54072;47.410;8.446;2022-08-11T03:57:31;2.90;;;2.60;;
9142;SDS011;54072;47.410;8.446;2022-08-11T04:08:54;2.73;;;2.40;;
9142;SDS011;54072;47.410;8.446;2022-08-11T04:11:48;3.10;;;2.50;;
9142;SDS011;54072;47.410;8.446;2022-08-11T04:14:28;3.00;;;2.50;;
9142;SDS011;54072;47.410;8.446;2022-08-11T04:20:10;5.30;;;2.47;;
9142;SDS011;54072;47.410;8.446;2022-08-11T04:22:52;2.70;;;2.50;;
9142;SDS011;54072;47.410;8.446;2022-08-11T04:28:32;2.80;;;2.40;;
9142;SDS011;54072;47.410;8.446;2022-08-11T04:31:09;4.33;;;2.37;;
9142;SDS011;54072;47.410;8.446;2022-08-11T04:34:05;2.60;;;2.40;;
9142;SDS011;54072;47.410;8.446;2022-08-11T04:36:51;2.70;;;2.47;;
9142;SDS011;54072;47.410;8.446;2022-08-11T04:39:46;2.93;;;2.63;;
9142;SDS011;54072;47.410;8.446;2022-08-11T04:42:39;4.50;;;2.53;;
9142;SDS011;54072;47.410;8.446;2022-08-11T04:45:34;3.07;;;2.80;;
9142;SDS011;54072;47.410;8.446;2022-08-11T04:48:31;5.70;;;2.80;;
9142;SDS011;54072;47.410;8.446;2022-08-11T04:51:29;2.97;;;2.77;;
9142;SDS011;54072;47.410;8.446;2022-08-11T04:54:19;2.90;;;2.70;;
9142;SDS011;54072;47.410;8.446;2022-08-11T04:57:08;2.77;;;2.57;;
9142;SDS011;54072;47.410;8.446;2022-08-11T05:00:00;3.73;;;2.60;;
9142;SDS011;54072;47.410;8.446;2022-08-11T05:02:56;2.97;;;2.77;;
9142;SDS011;54072;47.410;8.446;2022-08-11T05:05:30;3.03;;;2.50;;
9142;SDS011;54072;47.410;8.446;2022-08-11T05:08:09;4.57;;;2.90;;
9142;SDS011;54072;47.410;8.446;2022-08-11T05:10:52;2.77;;;2.57;;
9142;SDS011;54072;47.410;8.446;2022-08-11T05:13:25;5.07;;;2.90;;
9142;SDS011;54072;47.410;8.446;2022-08-11T05:16:12;3.47;;;2.80;;
9142;SDS011;54072;47.410;8.446;2022-08-11T05:18:59;3.23;;;2.73;;
9142;SDS011;54072;47.410;8.446;2022-08-11T05:21:50;5.67;;;2.90;;
9142;SDS011;54072;47.410;8.446;2022-08-11T05:24:40;5.00;;;3.07;;
9142;SDS011;54072;47.410;8.446;2022-08-11T05:27:22;2.83;;;2.63;;
9142;SDS011;54072;47.410;8.446;2022-08-11T05:30:12;3.53;;;2.70;;
9142;SDS011;54072;47.410;8.446;2022-08-11T05:32:58;4.60;;;2.80;;
9142;SDS011;54072;47.410;8.446;2022-08-11T05:35:46;4.73;;;2.67;;
9142;SDS011;54072;47.410;8.446;2022-08-11T05:38:17;3.10;;;2.80;;
9142;SDS011;54072;47.410;8.446;2022-08-11T05:41:04;3.70;;;2.83;;
9142;SDS011;54072;47.410;8.446;2022-08-11T05:43:50;2.93;;;2.70;;
9142;SDS011;54072;47.410;8.446;2022-08-11T05:46:37;3.13;;;2.83;;
9142;SDS011;54072;47.410;8.446;2022-08-11T05:49:23;3.27;;;2.90;;
9142;SDS011;54072;47.410;8.446;2022-08-11T05:52:12;3.17;;;2.90;;
9142;SDS011;54072;47.410;8.446;2022-08-11T05:55:01;3.20;;;2.90;;
9142;SDS011;54072;47.410;8.446;2022-08-11T05:57:46;3.53;;;2.80;;
9142;SDS011;54072;47.410;8.446;2022-08-11T06:00:14;3.47;;;2.90;;
9142;SDS011;54072;47.410;8.446;2022-08-11T06:02:42;3.70;;;3.40;;
9142;SDS011;54072;47.410;8.446;2022-08-11T06:05:10;3.07;;;2.83;;
9142;SDS011;54072;47.410;8.446;2022-08-11T06:07:37;3.90;;;2.93;;
9142;SDS011;54072;47.410;8.446;2022-08-11T06:10:07;4.53;;;2.80;;
9142;SDS011;54072;47.410;8.446;2022-08-11T06:12:35;3.40;;;2.80;;
9142;SDS011;54072;47.410;8.446;2022-08-11T06:15:07;3.67;;;2.90;;
9142;SDS011;54072;47.410;8.446;2022-08-11T06:17:42;5.97;;;3.07;;
9142;SDS011;54072;47.410;8.446;2022-08-11T06:20:10;5.50;;;3.10;;
9142;SDS011;54072;47.410;8.446;2022-08-11T06:22:38;3.00;;;2.70;;
9142;SDS011;54072;47.410;8.446;2022-08-11T06:25:09;3.70;;;3.10;;
9142;SDS011;54072;47.410;8.446;2022-08-11T06:27:37;3.23;;;2.93;;
9142;SDS011;54072;47.410;8.446;2022-08-11T06:30:07;2.90;;;2.70;;
9142;SDS011;54072;47.410;8.446;2022-08-11T06:32:40;3.40;;;3.10;;
9142;SDS011;54072;47.410;8.446;2022-08-11T06:35:14;3.10;;;2.80;;
9142;SDS011;54072;47.410;8.446;2022-08-11T06:37:45;3.93;;;3.20;;
9142;SDS011;54072;47.410;8.446;2022-08-11T06:40:20;3.40;;;3.10;;
9142;SDS011;54072;47.410;8.446;2022-08-11T06:42:53;3.13;;;2.83;;
9142;SDS011;54072;47.410;8.446;2022-08-11T06:45:26;4.43;;;3.40;;
9142;SDS011;54072;47.410;8.446;2022-08-11T06:47:54;5.60;;;3.10;;
9142;SDS011;54072;47.410;8.446;2022-08-11T06:50:24;3.10;;;2.87;;
9142;SDS011;54072;47.410;8.446;2022-08-11T06:53:09;3.50;;;2.80;;
9142;SDS011;54072;47.410;8.446;2022-08-11T06:55:40;3.20;;;2.90;;
9142;SDS011;54072;47.410;8.446;2022-08-11T06:58:27;3.80;;;3.03;;
9142;SDS011;54072;47.410;8.446;2022-08-11T07:01:13;3.10;;;2.90;;
9142;SDS011;54072;47.410;8.446;2022-08-11T07:03:42;3.93;;;3.07;;
9142;SDS011;54072;47.410;8.446;2022-08-11T07:06:14;4.03;;;3.00;;
9142;SDS011;54072;47.410;8.446;2022-08-11T07:09:06;4.10;;;2.93;;
9142;SDS011;54072;47.410;8.446;2022-08-11T07:11:57;5.23;;;3.03;;
9142;SDS011;54072;47.410;8.446;2022-08-11T07:14:46;3.33;;;3.03;;
9142;SDS011;54072;47.410;8.446;2022-08-11T07:17:33;4.80;;;3.10;;
9142;SDS011;54072;47.410;8.446;2022-08-11T07:20:04;3.77;;;3.30;;
9142;SDS011;54072;47.410;8.446;2022-08-11T07:22:53;3.20;;;3.00;;
9142;SDS011;54072;47.410;8.446;2022-08-11T07:25:40;4.37;;;3.27;;
9142;SDS011;54072;47.410;8.446;2022-08-11T07:28:28;4.05;;;2.97;;
9142;SDS011;54072;47.410;8.446;2022-08-11T07:31:16;4.05;;;3.00;;
9142;SDS011;54072;47.410;8.446;2022-08-11T07:33:47;3.63;;;3.20;;
9142;SDS011;54072;47.410;8.446;2022-08-11T07:36:16;3.87;;;3.00;;
9142;SDS011;54072;47.410;8.446;2022-08-11T07:38:44;3.20;;;2.97;;
9142;SDS011;54072;47.410;8.446;2022-08-11T07:41:16;3.53;;;2.92;;
9142;SDS011;54072;47.410;8.446;2022-08-11T07:43:47;5.35;;;3.15;;
9142;SDS011;54072;47.410;8.446;2022-08-11T07:46:15;4.10;;;3.00;;
9142;SDS011;54072;47.410;8.446;2022-08-11T07:49:01;3.40;;;3.08;;
9142;SDS011;54072;47.410;8.446;2022-08-11T07:51:46;3.88;;;3.40;;
9142;SDS011;54072;47.410;8.446;2022-08-11T07:54:32;6.43;;;3.00;;
9142;SDS011;54072;47.410;8.446;2022-08-11T07:57:00;3.38;;;3.08;;
9142;SDS011;54072;47.410;8.446;2022-08-11T07:59:48;4.63;;;3.20;;
9142;SDS011;54072;47.410;8.446;2022-08-11T08:02:33;3.88;;;3.40;;
9142;SDS011;54072;47.410;8.446;2022-08-11T08:05:19;4.85;;;3.42;;
9142;SDS011;54072;47.410;8.446;2022-08-11T08:08:04;4.20;;;3.78;;
9142;SDS011;54072;47.410;8.446;2022-08-11T08:10:51;3.13;;;2.92;;
9142;SDS011;54072;47.410;8.446;2022-08-11T08:13:38;3.28;;;2.97;;
9142;SDS011;54072;47.410;8.446;2022-08-11T08:16:24;4.90;;;3.13;;
9142;SDS011;54072;47.410;8.446;2022-08-11T08:19:10;3.67;;;3.10;;
9142;SDS011;54072;47.410;8.446;2022-08-11T08:21:38;5.03;;;3.13;;
9142;SDS011;54072;47.410;8.446;2022-08-11T08:24:05;7.10;;;3.22;;
9142;SDS011;54072;47.410;8.446;2022-08-11T08:26:33;4.45;;;3.10;;
9142;SDS011;54072;47.410;8.446;2022-08-11T08:29:19;5.10;;;3.42;;
9142;SDS011;54072;47.410;8.446;2022-08-11T08:32:07;4.93;;;3.70;;
9142;SDS011;54072;47.410;8.446;2022-08-11T08:34:36;3.92;;;3.35;;
9142;SDS011;54072;47.410;8.446;2022-08-11T08:37:05;3.50;;;3.28;;
9142;SDS011;54072;47.410;8.446;2022-08-11T08:39:33;4.30;;;3.25;;
9142;SDS011;54072;47.410;8.446;2022-08-11T08:42:04;5.10;;;3.20;;
9142;SDS011;54072;47.410;8.446;2022-08-11T08:44:33;3.33;;;3.10;;
9142;SDS011;54072;47.410;8.446;2022-08-11T08:47:07;4.30;;;3.55;;
9142;SDS011;54072;47.410;8.446;2022-08-11T08:49:37;3.92;;;3.53;;
9142;SDS011;54072;47.410;8.446;2022-08-11T08:52:07;3.67;;;3.30;;
9142;SDS011;54072;47.410;8.446;2022-08-11T08:54:38;5.30;;;3.33;;
9142;SDS011;54072;47.410;8.446;2022-08-11T08:57:08;3.20;;;3.00;;
9142;SDS011;54072;47.410;8.446;2022-08-11T08:59:38;3.50;;;3.30;;
9142;SDS011;54072;47.410;8.446;2022-08-11T09:02:07;3.55;;;3.10;;
9142;SDS011;54072;47.410;8.446;2022-08-11T09:04:38;3.30;;;3.10;;
9142;SDS011;54072;47.410;8.446;2022-08-11T09:07:08;3.72;;;3.30;;
9142;SDS011;54072;47.410;8.446;2022-08-11T09:09:38;5.50;;;3.65;;
9142;SDS011;54072;47.410;8.446;2022-08-11T09:12:07;4.72;;;3.00;;
9142;SDS011;54072;47.410;8.446;2022-08-11T09:14:36;4.85;;;3.28;;
9142;SDS011;54072;47.410;8.446;2022-08-11T09:17:23;4.75;;;3.55;;
9142;SDS011;54072;47.410;8.446;2022-08-11T09:19:54;4.55;;;3.25;;
9142;SDS011;54072;47.410;8.446;2022-08-11T09:22:25;3.85;;;3.55;;
9142;SDS011;54072;47.410;8.446;2022-08-11T09:25:11;5.10;;;3.50;;
9142;SDS011;54072;47.410;8.446;2022-08-11T09:27:56;3.80;;;3.40;;
9142;SDS011;54072;47.410;8.446;2022-08-11T09:30:24;3.85;;;3.40;;
9142;SDS011;54072;47.410;8.446;2022-08-11T09:32:55;3.50;;;3.13;;
9142;SDS011;54072;47.410;8.446;2022-08-11T09:35:25;3.75;;;3.42;;
9142;SDS011;54072;47.410;8.446;2022-08-11T09:37:53;4.13;;;3.15;;
9142;SDS011;54072;47.410;8.446;2022-08-11T09:40:39;3.80;;;3.50;;
9142;SDS011;54072;47.410;8.446;2022-08-11T09:43:10;4.18;;;3.40;;
9142;SDS011;54072;47.410;8.446;2022-08-11T09:45:56;3.50;;;3.20;;
9142;SDS011;54072;47.410;8.446;2022-08-11T09:48:26;4.22;;;3.83;;
9142;SDS011;54072;47.410;8.446;2022-08-11T09:50:54;5.40;;;3.30;;
9142;SDS011;54072;47.410;8.446;2022-08-11T09:53:24;3.67;;;3.38;;
9142;SDS011;54072;47.410;8.446;2022-08-11T09:55:52;5.25;;;3.97;;
9142;SDS011;54072;47.410;8.446;2022-08-11T09:58:19;4.00;;;3.60;;
9142;SDS011;54072;47.410;8.446;2022-08-11T10:00:48;4.38;;;3.40;;
9142;SDS011;54072;47.410;8.446;2022-08-11T10:03:17;5.05;;;3.85;;
9142;SDS011;54072;47.410;8.446;2022-08-11T10:05:47;4.05;;;3.65;;
9142;SDS011;54072;47.410;8.446;2022-08-11T10:08:33;3.53;;;3.20;;
9142;SDS011;54072;47.410;8.446;2022-08-11T10:11:01;4.43;;;3.50;;
9142;SDS011;54072;47.410;8.446;2022-08-11T10:13:30;3.97;;;3.30;;
9142;SDS011;54072;47.410;8.446;2022-08-11T10:16:01;5.72;;;3.38;;
9142;SDS011;54072;47.410;8.446;2022-08-11T10:18:29;6.68;;;3.60;;
9142;SDS011;54072;47.410;8.446;2022-08-11T10:21:16;4.55;;;3.40;;
9142;SDS011;54072;47.410;8.446;2022-08-11T10:23:48;4.93;;;3.58;;
9142;SDS011;54072;47.410;8.446;2022-08-11T10:26:35;4.25;;;3.58;;
9142;SDS011;54072;47.410;8.446;2022-08-11T10:29:24;4.05;;;3.50;;
9142;SDS011;54072;47.410;8.446;2022-08-11T10:32:10;3.85;;;3.55;;
9142;SDS011;54072;47.410;8.446;2022-08-11T10:34:57;3.75;;;3.47;;
9142;SDS011;54072;47.410;8.446;2022-08-11T10:37:26;4.20;;;3.35;;
9142;SDS011;54072;47.410;8.446;2022-08-11T10:39:59;3.80;;;3.42;;
9142;SDS011;54072;47.410;8.446;2022-08-11T10:42:27;3.70;;;3.30;;
9142;SDS011;54072;47.410;8.446;2022-08-11T10:45:22;4.28;;;3.25;;
9142;SDS011;54072;47.410;8.446;2022-08-11T10:48:07;4.00;;;3.63;;
9142;SDS011;54072;47.410;8.446;2022-08-11T10:50:38;3.50;;;3.30;;
9142;SDS011;54072;47.410;8.446;2022-08-11T10:53:25;4.28;;;3.70;;
9142;SDS011;54072;47.410;8.446;2022-08-11T10:56:10;6.10;;;3.58;;
9142;SDS011;54072;47.410;8.446;2022-08-11T10:58:56;3.90;;;3.42;;
9142;SDS011;54072;47.410;8.446;2022-08-11T11:01:26;8.35;;;3.28;;
9142;SDS011;54072;47.410;8.446;2022-08-11T11:03:55;4.82;;;3.58;;
9142;SDS011;54072;47.410;8.446;2022-08-11T11:06:26;3.80;;;3.50;;
9142;SDS011;54072;47.410;8.446;2022-08-11T11:09:01;3.92;;;3.50;;
9142;SDS011;54072;47.410;8.446;2022-08-11T11:11:32;4.82;;;3.63;;
9142;SDS011;54072;47.410;8.446;2022-08-11T11:14:18;5.13;;;3.70;;
9142;SDS011;54072;47.410;8.446;2022-08-11T11:17:04;4.38;;;3.97;;
9142;SDS011;54072;47.410;8.446;2022-08-11T11:19:51;4.55;;;3.60;;
9142;SDS011;54072;47.410;8.446;2022-08-11T11:22:19;3.95;;;3.55;;
9142;SDS011;54072;47.410;8.446;2022-08-11T11:25:19;4.80;;;3.47;;
9142;SDS011;54072;47.410;8.446;2022-08-11T11:27:50;3.80;;;3.35;;
9142;SDS011;54072;47.410;8.446;2022-08-11T11:30:18;3.90;;;3.60;;
9142;SDS011;54072;47.410;8.446;2022-08-11T11:32:47;3.78;;;3.40;;
9142;SDS011;54072;47.410;8.446;2022-08-11T11:35:29;3.80;;;3.50;;
9142;SDS011;54072;47.410;8.446;2022-08-11T11:38:02;4.07;;;3.67;;
9142;SDS011;54072;47.410;8.446;2022-08-11T11:40:39;3.78;;;3.40;;
9142;SDS011;54072;47.410;8.446;2022-08-11T11:43:08;4.90;;;3.50;;
9142;SDS011;54072;47.410;8.446;2022-08-11T11:45:36;3.70;;;3.40;;
9142;SDS011;54072;47.410;8.446;2022-08-11T11:48:07;5.20;;;3.70;;
9142;SDS011;54072;47.410;8.446;2022-08-11T11:50:35;3.88;;;3.55;;
9142;SDS011;54072;47.410;8.446;2022-08-11T11:53:04;4.10;;;3.80;;
9142;SDS011;54072;47.410;8.446;2022-08-11T11:55:32;4.32;;;3.42;;
9142;SDS011;54072;47.410;8.446;2022-08-11T11:58:02;7.32;;;3.42;;
9142;SDS011;54072;47.410;8.446;2022-08-11T12:00:48;3.92;;;3.50;;
9142;SDS011;54072;47.410;8.446;2022-08-11T12:03:33;3.60;;;3.30;;
9142;SDS011;54072;47.410;8.446;2022-08-11T12:06:03;3.90;;;3.35;;
9142;SDS011;54072;47.410;8.446;2022-08-11T12:08:30;4.93;;;3.50;;
9142;SDS011;54072;47.410;8.446;2022-08-11T12:10:59;4.35;;;3.95;;
9142;SDS011;54072;47.410;8.446;2022-08-11T12:13:47;4.55;;;3.80;;
9142;SDS011;54072;47.410;8.446;2022-08-11T12:16:16;4.40;;;3.47;;
9142;SDS011;54072;47.410;8.446;2022-08-11T12:18:44;4.32;;;3.72;;
9142;SDS011;54072;47.410;8.446;2022-08-11T12:21:13;5.00;;;3.40;;
9142;SDS011;54072;47.410;8.446;2022-08-11T12:23:41;3.78;;;3.25;;
9142;SDS011;54072;47.410;8.446;2022-08-11T12:26:29;3.60;;;3.30;;
9142;SDS011;54072;47.410;8.446;2022-08-11T12:29:17;4.03;;;3.17;;
9142;SDS011;54072;47.410;8.446;2022-08-11T12:31:45;4.90;;;3.35;;
9142;SDS011;54072;47.410;8.446;2022-08-11T12:34:14;4.20;;;3.80;;
9142;SDS011;54072;47.410;8.446;2022-08-11T12:36:44;5.60;;;3.80;;
9142;SDS011;54072;47.410;8.446;2022-08-11T12:39:12;3.65;;;3.40;;
9142;SDS011;54072;47.410;8.446;2022-08-11T12:41:44;4.00;;;3.60;;
9142;SDS011;54072;47.410;8.446;2022-08-11T12:44:30;4.30;;;3.67;;
9142;SDS011;54072;47.410;8.446;2022-08-11T12:47:18;5.43;;;3.88;;
9142;SDS011;54072;47.410;8.446;2022-08-11T12:49:47;4.10;;;3.70;;
9142;SDS011;54072;47.410;8.446;2022-08-11T12:52:33;3.88;;;3.50;;
9142;SDS011;54072;47.410;8.446;2022-08-11T12:55:04;3.85;;;3.55;;
9142;SDS011;54072;47.410;8.446;2022-08-11T12:57:37;4.93;;;3.70;;
9142;SDS011;54072;47.410;8.446;2022-08-11T13:00:25;3.70;;;3.50;;
9142;SDS011;54072;47.410;8.446;2022-08-11T13:03:11;3.90;;;3.60;;
9142;SDS011;54072;47.410;8.446;2022-08-11T13:05:57;4.95;;;3.50;;
9142;SDS011;54072;47.410;8.446;2022-08-11T13:08:26;4.15;;;3.45;;
9142;SDS011;54072;47.410;8.446;2022-08-11T13:10:55;3.97;;;3.67;;
9142;SDS011;54072;47.410;8.446;2022-08-11T13:13:40;4.85;;;3.40;;
9142;SDS011;54072;47.410;8.446;2022-08-11T13:16:10;3.70;;;3.40;;
9142;SDS011;54072;47.410;8.446;2022-08-11T13:18:40;4.40;;;3.97;;
9142;SDS011;54072;47.410;8.446;2022-08-11T13:21:08;3.92;;;3.53;;
9142;SDS011;54072;47.410;8.446;2022-08-11T13:23:37;3.33;;;3.10;;
9142;SDS011;54072;47.410;8.446;2022-08-11T13:26:04;8.75;;;3.50;;
9142;SDS011;54072;47.410;8.446;2022-08-11T13:28:34;3.80;;;3.50;;
9142;SDS011;54072;47.410;8.446;2022-08-11T13:31:02;3.92;;;3.35;;
9142;SDS011;54072;47.410;8.446;2022-08-11T13:33:41;4.43;;;3.83;;
9142;SDS011;54072;47.410;8.446;2022-08-11T13:36:10;3.75;;;3.28;;
9142;SDS011;54072;47.410;8.446;2022-08-11T13:38:40;3.75;;;3.40;;
9142;SDS011;54072;47.410;8.446;2022-08-11T13:41:09;3.88;;;3.47;;
9142;SDS011;54072;47.410;8.446;2022-08-11T13:44:00;3.88;;;3.45;;
9142;SDS011;54072;47.410;8.446;2022-08-11T13:46:28;4.55;;;3.65;;
9142;SDS011;54072;47.410;8.446;2022-08-11T13:48:57;6.38;;;3.70;;
9142;SDS011;54072;47.410;8.446;2022-08-11T13:51:25;7.10;;;3.72;;
9142;SDS011;54072;47.410;8.446;2022-08-11T13:54:03;4.10;;;3.55;;
9142;SDS011;54072;47.410;8.446;2022-08-11T13:56:32;4.95;;;3.60;;
9142;SDS011;54072;47.410;8.446;2022-08-11T13:59:00;4.32;;;3.80;;
9142;SDS011;54072;47.410;8.446;2022-08-11T14:01:28;3.80;;;3.60;;
9142;SDS011;54072;47.410;8.446;2022-08-11T14:04:00;3.95;;;3.55;;
9142;SDS011;54072;47.410;8.446;2022-08-11T14:06:29;5.35;;;3.78;;
9142;SDS011;54072;47.410;8.446;2022-08-11T14:08:57;3.58;;;3.33;;
9142;SDS011;54072;47.410;8.446;2022-08-11T14:11:25;3.75;;;3.55;;
9142;SDS011;54072;47.410;8.446;2022-08-11T14:14:12;4.40;;;3.55;;
9142;SDS011;54072;47.410;8.446;2022-08-11T14:16:42;3.80;;;3.50;;
9142;SDS011;54072;47.410;8.446;2022-08-11T14:19:12;3.97;;;3.72;;
9142;SDS011;54072;47.410;8.446;2022-08-11T14:21:41;4.00;;;3.40;;
9142;SDS011;54072;47.410;8.446;2022-08-11T14:24:28;6.05;;;3.72;;
9142;SDS011;54072;47.410;8.446;2022-08-11T14:26:57;4.10;;;3.70;;
9142;SDS011;54072;47.410;8.446;2022-08-11T14:29:26;6.10;;;3.60;;
9142;SDS011;54072;47.410;8.446;2022-08-11T14:31:54;4.00;;;3.70;;
9142;SDS011;54072;47.410;8.446;2022-08-11T14:34:25;4.65;;;3.70;;
9142;SDS011;54072;47.410;8.446;2022-08-11T14:36:55;3.92;;;3.50;;
9142;SDS011;54072;47.410;8.446;2022-08-11T14:39:24;4.75;;;3.55;;
9142;SDS011;54072;47.410;8.446;2022-08-11T14:41:52;4.32;;;3.92;;
9142;SDS011;54072;47.410;8.446;2022-08-11T14:44:39;3.80;;;3.50;;
9142;SDS011;54072;47.410;8.446;2022-08-11T14:47:25;4.45;;;4.05;;
9142;SDS011;54072;47.410;8.446;2022-08-11T14:49:55;6.65;;;3.75;;
9142;SDS011;54072;47.410;8.446;2022-08-11T14:52:23;3.67;;;3.38;;
9142;SDS011;54072;47.410;8.446;2022-08-11T14:54:51;6.78;;;3.83;;
9142;SDS011;54072;47.410;8.446;2022-08-11T14:57:39;9.30;;;3.92;;
9142;SDS011;54072;47.410;8.446;2022-08-11T15:00:08;3.75;;;3.45;;
9142;SDS011;54072;47.410;8.446;2022-08-11T15:02:38;3.97;;;3.60;;
9142;SDS011;54072;47.410;8.446;2022-08-11T15:05:25;3.60;;;3.30;;
9142;SDS011;54072;47.410;8.446;2022-08-11T15:07:53;4.50;;;3.80;;
9142;SDS011;54072;47.410;8.446;2022-08-11T15:10:21;3.97;;;3.58;;
9142;SDS011;54072;47.410;8.446;2022-08-11T15:12:49;4.28;;;3.97;;
9142;SDS011;54072;47.410;8.446;2022-08-11T15:15:18;4.20;;;3.67;;
9142;SDS011;54072;47.410;8.446;2022-08-11T15:18:04;4.90;;;3.67;;
9142;SDS011;54072;47.410;8.446;2022-08-11T15:20:33;4.55;;;3.70;;
9142;SDS011;54072;47.410;8.446;2022-08-11T15:23:18;4.07;;;3.60;;
9142;SDS011;54072;47.410;8.446;2022-08-11T15:26:04;4.10;;;3.80;;
9142;SDS011;54072;47.410;8.446;2022-08-11T15:28:33;4.10;;;3.80;;
9142;SDS011;54072;47.410;8.446;2022-08-11T15:31:21;4.00;;;3.70;;
9142;SDS011;54072;47.410;8.446;2022-08-11T15:34:07;4.22;;;3.92;;
9142;SDS011;54072;47.410;8.446;2022-08-11T15:37:06;3.67;;;3.33;;
9142;SDS011;54072;47.410;8.446;2022-08-11T15:39:52;3.85;;;3.55;;
9142;SDS011;54072;47.410;8.446;2022-08-11T15:42:43;4.07;;;3.78;;
9142;SDS011;54072;47.410;8.446;2022-08-11T15:45:28;3.88;;;3.58;;
9142;SDS011;54072;47.410;8.446;2022-08-11T15:48:16;4.47;;;3.80;;
9142;SDS011;54072;47.410;8.446;2022-08-11T15:50:45;3.72;;;3.33;;
9142;SDS011;54072;47.410;8.446;2022-08-11T15:53:16;4.60;;;4.15;;
9142;SDS011;54072;47.410;8.446;2022-08-11T15:55:46;5.68;;;3.95;;
9142;SDS011;54072;47.410;8.446;2022-08-11T15:58:14;5.07;;;3.67;;
9142;SDS011;54072;47.410;8.446;2022-08-11T16:01:00;4.47;;;3.78;;
9142;SDS011;54072;47.410;8.446;2022-08-11T16:03:48;3.95;;;3.65;;
9142;SDS011;54072;47.410;8.446;2022-08-11T16:06:35;5.20;;;4.00;;
9142;SDS011;54072;47.410;8.446;2022-08-11T16:09:05;4.07;;;3.70;;
9142;SDS011;54072;47.410;8.446;2022-08-11T16:11:34;4.05;;;3.63;;
9142;SDS011;54072;47.410;8.446;2022-08-11T16:14:01;4.40;;;3.88;;
9142;SDS011;54072;47.410;8.446;2022-08-11T16:16:47;5.65;;;3.83;;
9142;SDS011;54072;47.410;8.446;2022-08-11T16:19:15;4.50;;;4.00;;
9142;SDS011;54072;47.410;8.446;2022-08-11T16:21:45;4.20;;;3.90;;
9142;SDS011;54072;47.410;8.446;2022-08-11T16:24:18;3.72;;;3.42;;
9142;SDS011;54072;47.410;8.446;2022-08-11T16:26:46;4.10;;;3.70;;
9142;SDS011;54072;47.410;8.446;2022-08-11T16:29:14;4.80;;;4.07;;
9142;SDS011;54072;47.410;8.446;2022-08-11T16:31:42;3.72;;;3.53;;
9142;SDS011;54072;47.410;8.446;2022-08-11T16:34:31;4.30;;;3.90;;